Map

Track Data

SID SEASON NUMBER BASIN SUBBASIN NAME ISO_TIME NATURE LAT LON WMO_WIND WMO_PRES WMO_AGENCY TRACK_TYPE DIST2LAND LANDFALL IFLAG USA_AGENCY USA_ATCF_ID USA_LAT USA_LON USA_RECORD USA_STATUS USA_WIND USA_PRES USA_SSHS USA_R34_NE USA_R34_SE USA_R34_SW USA_R34_NW USA_R50_NE USA_R50_SE USA_R50_SW USA_R50_NW USA_R64_NE USA_R64_SE USA_R64_SW USA_R64_NW USA_POCI USA_ROCI USA_RMW USA_EYE TOKYO_LAT TOKYO_LON TOKYO_GRADE TOKYO_WIND TOKYO_PRES TOKYO_R50_DIR TOKYO_R50_LONG TOKYO_R50_SHORT TOKYO_R30_DIR TOKYO_R30_LONG TOKYO_R30_SHORT TOKYO_LAND CMA_LAT CMA_LON CMA_CAT CMA_WIND CMA_PRES HKO_LAT HKO_LON HKO_CAT HKO_WIND HKO_PRES NEWDELHI_LAT NEWDELHI_LON NEWDELHI_GRADE NEWDELHI_WIND NEWDELHI_PRES NEWDELHI_CI NEWDELHI_DP NEWDELHI_POCI REUNION_LAT REUNION_LON REUNION_TYPE REUNION_WIND REUNION_PRES REUNION_TNUM REUNION_CI REUNION_RMW REUNION_R34_NE REUNION_R34_SE REUNION_R34_SW REUNION_R34_NW REUNION_R50_NE REUNION_R50_SE REUNION_R50_SW REUNION_R50_NW REUNION_R64_NE REUNION_R64_SE REUNION_R64_SW REUNION_R64_NW BOM_LAT BOM_LON BOM_TYPE BOM_WIND BOM_PRES BOM_TNUM BOM_CI BOM_RMW BOM_R34_NE BOM_R34_SE BOM_R34_SW BOM_R34_NW BOM_R50_NE BOM_R50_SE BOM_R50_SW BOM_R50_NW BOM_R64_NE BOM_R64_SE BOM_R64_SW BOM_R64_NW BOM_ROCI BOM_POCI BOM_EYE BOM_POS_METHOD BOM_PRES_METHOD NADI_LAT NADI_LON NADI_CAT NADI_WIND NADI_PRES WELLINGTON_LAT WELLINGTON_LON WELLINGTON_WIND WELLINGTON_PRES DS824_LAT DS824_LON DS824_STAGE DS824_WIND DS824_PRES TD9636_LAT TD9636_LON TD9636_STAGE TD9636_WIND TD9636_PRES TD9635_LAT TD9635_LON TD9635_WIND TD9635_PRES TD9635_ROCI NEUMANN_LAT NEUMANN_LON NEUMANN_CLASS NEUMANN_WIND NEUMANN_PRES MLC_LAT MLC_LON MLC_CLASS MLC_WIND MLC_PRES USA_GUST BOM_GUST BOM_GUST_PER REUNION_GUST REUNION_GUST_PER USA_SEAHGT USA_SEARAD_NE USA_SEARAD_SE USA_SEARAD_SW USA_SEARAD_NW STORM_SPEED STORM_DIR
1958039S08093 1958 11 SI WA NOT_NAMED 1958-02-07 18:00:00 TS -8.00000 93.4000 bom main 932 932 O_____O__OO___ jtwc_sh SH141958 -8.00000 93.4000 -1 -8.00000 93.4000 -8.00000 93.4000 TC -8.00000 93.4000 7 2 271
1958039S08093 1958 11 SI WA NOT_NAMED 1958-02-07 21:00:00 TS -7.99921 93.3077 main 940 940 P_____P__PP___ SH141958 -8.00000 93.3175 -1 -8.00000 93.3175 -8.00000 93.3175 TC -7.99685 93.2781 7 2 270
1958039S08093 1958 11 SI WA NOT_NAMED 1958-02-08 00:00:00 TS -7.99874 93.1862 bom main 947 947 O_____O__OP___ jtwc_sh SH141958 -8.00000 93.2000 -1 -8.00000 93.2000 -8.00000 93.2000 TC -7.99495 93.1450 7 3 270
1958039S08093 1958 11 SI WA NOT_NAMED 1958-02-08 03:00:00 TS -7.99889 93.0142 main 962 962 P_____P__PP___ SH141958 -8.00000 93.0225 -1 -8.00000 93.0225 -8.00000 93.0225 TC -7.99558 92.9894 7 4 270
1958039S08093 1958 11 SI WA NOT_NAMED 1958-02-08 06:00:00 TS -8.00000 92.8000 bom main 977 977 O_____O__OO___ jtwc_sh SH141958 -8.00000 92.8000 -1 -8.00000 92.8000 -8.00000 92.8000 TC 25 -8.00000 92.8000 1 4 270
1958039S08093 1958 11 SI WA NOT_NAMED 1958-02-08 09:00:00 TS -7.99681 92.5608 main 993 993 P_____P__PP___ SH141958 -7.99250 92.5575 -1 -7.99250 92.5575 -7.99250 92.5575 TC 25 -8.00975 92.5706 1 5 269
1958039S08093 1958 11 SI WA NOT_NAMED 1958-02-08 12:00:00 TS -8.00690 92.3038 bom main 1016 1016 O_____O__OP___ jtwc_sh SH141958 -8.00000 92.3000 -1 -8.00000 92.3000 -8.00000 92.3000 TC 25 -8.02759 92.3150 1 5 265
1958039S08093 1958 11 SI WA NOT_NAMED 1958-02-08 15:00:00 TS -8.04603 92.0449 main 1040 1040 P_____P__PP___ SH141958 -8.04250 92.0425 -1 -8.04250 92.0425 -8.04250 92.0425 TC 25 -8.05662 92.0519 1 5 259
1958039S08093 1958 11 SI WA NOT_NAMED 1958-02-08 18:00:00 TS -8.10000 91.8000 bom main 1064 1064 O_____O__OO___ jtwc_sh SH141958 -8.10000 91.8000 -1 -8.10000 91.8000 -8.10000 91.8000 TC 25 -8.10000 91.8000 1 5 258
1958039S08093 1958 11 SI WA NOT_NAMED 1958-02-08 21:00:00 TS -8.14192 91.5918 main 1081 1081 P_____P__PP___ SH141958 -8.14248 91.5925 -1 -8.14248 91.5925 -8.14248 91.5925 TC 25 -8.14023 91.5896 1 4 256
1958039S08093 1958 11 SI WA NOT_NAMED 1958-02-09 00:00:00 TS -8.19935 91.3981 bom main 1105 1105 O_____O__OP___ jtwc_sh SH141958 -8.20000 91.4000 -1 -8.20000 91.4000 -8.20000 91.4000 TC 25 -8.19739 91.3924 1 4 251
1958039S08093 1958 11 SI WA NOT_NAMED 1958-02-09 03:00:00 TS -8.27833 91.1997 main 1129 1129 P_____P__PP___ SH141958 -8.27749 91.2000 -1 -8.27749 91.2000 -8.27749 91.2000 TC 30 -8.28086 91.1990 1 4 243
1958039S08093 1958 11 SI WA NOT_NAMED 1958-02-09 06:00:00 TS -8.40000 91.0000 bom main 1153 1153 O_____O__OO___ jtwc_sh SH141958 -8.40000 91.0000 -1 -8.40000 91.0000 -8.40000 91.0000 TC 35 -8.40000 91.0000 2 5 233
1958039S08093 1958 11 SI WA NOT_NAMED 1958-02-09 09:00:00 TS -8.57771 90.8012 main 1184 1184 P_____P__PP___ SH141958 -8.58498 90.8075 -1 -8.58498 90.8075 -8.58498 90.8075 TC 35 -8.55592 90.7822 2 6 226
1958039S08093 1958 11 SI WA NOT_NAMED 1958-02-09 12:00:00 TS -8.78687 90.5894 bom main 1215 1215 O_____O__OP___ jtwc_sh SH141958 -8.80000 90.6000 -1 -8.80000 90.6000 -8.80000 90.6000 TC 35 -8.74748 90.5575 2 6 227
1958039S08093 1958 11 SI WA NOT_NAMED 1958-02-09 15:00:00 TS -8.99133 90.3448 main 1255 1255 P_____P__PP___ SH141958 -9.00001 90.3500 -1 -9.00001 90.3500 -9.00001 90.3500 TC 35 -8.96529 90.3290 2 6 229
1958039S08093 1958 11 SI WA NOT_NAMED 1958-02-09 18:00:00 TS -9.20000 90.1000 bom main 1286 1286 O_____O__OO___ jtwc_sh SH141958 -9.20000 90.1000 -1 -9.20000 90.1000 -9.20000 90.1000 TC 35 -9.20000 90.1000 2 6 229
1958039S08093 1958 11 SI MM NOT_NAMED 1958-02-09 21:00:00 TS -9.38442 89.8946 main 1317 1317 P_____P__PP___ SH141958 -9.38496 89.8999 -1 -9.38496 89.8999 -9.38496 89.8999 TC 35 -9.38280 89.8787 2 6 226
1958039S08093 1958 11 SI MM NOT_NAMED 1958-02-10 00:00:00 TS -9.59687 89.6892 bom main 1349 1349 O_____O__OP___ jtwc_sh SH141958 -9.60000 89.7000 -1 -9.60000 89.7000 -9.60000 89.7000 TC 35 -9.58749 89.6569 2 6 223
1958039S08093 1958 11 SI MM NOT_NAMED 1958-02-10 03:00:00 TS -9.85336 89.4510 main 1387 1387 P_____P__PP___ SH141958 -9.85500 89.4574 -1 -9.85500 89.4574 -9.85500 89.4574 TC 35 -9.84842 89.4317 2 8 219
1958039S08093 1958 11 SI MM NOT_NAMED 1958-02-10 06:00:00 TS -10.2000 89.2000 bom main 1434 1434 O_____O__OO___ jtwc_sh SH141958 -10.2000 89.2000 -1 -10.2000 89.2000 -10.2000 89.2000 TC 35 -10.2000 89.2000 2 9 212
1958039S08093 1958 11 SI MM NOT_NAMED 1958-02-10 09:00:00 TS -10.6510 88.9437 main 1496 1496 P_____P__PP___ SH141958 -10.6475 88.9499 -1 -10.6475 88.9499 -10.6475 88.9499 TC 35 -10.6615 88.9252 2 11 207
1958039S08093 1958 11 SI MM NOT_NAMED 1958-02-10 12:00:00 TS -11.2038 88.6871 bom main 1549 1549 O_____O__OP___ jtwc_sh SH141958 -11.2000 88.7000 -1 -11.2000 88.7000 -11.2000 88.7000 TC 35 -11.2154 88.6483 2 13 204
1958039S08093 1958 11 SI MM NOT_NAMED 1958-02-10 15:00:00 TS -11.8185 88.4255 main 1619 1619 P_____P__PP___ SH141958 -11.8125 88.4350 -1 -11.8125 88.4350 -11.8125 88.4350 TC 35 -11.8365 88.3971 2 14 200
1958039S08093 1958 11 SI MM NOT_NAMED 1958-02-10 18:00:00 TS -12.5000 88.2000 bom main 1690 1690 O_____O__OO___ jtwc_sh SH141958 -12.5000 88.2000 -1 -12.5000 88.2000 -12.5000 88.2000 TC 35 -12.5000 88.2000 2 15 196
1958039S08093 1958 11 SI MM NOT_NAMED 1958-02-10 21:00:00 TS -13.2477 88.0178 main 1761 1761 P_____P__PP___ SH141958 -13.2500 88.0051 -1 -13.2500 88.0051 -13.2500 88.0051 TC 35 -13.2409 88.0559 2 15 190
1958039S08093 1958 11 SI MM NOT_NAMED 1958-02-11 00:00:00 TS -14.0012 87.9181 bom main 1833 1833 O_____O__OP___ jtwc_sh SH141958 -14.0000 87.9000 -1 -14.0000 87.9000 -14.0000 87.9000 TC 35 -14.0046 87.9725 2 15 184
1958039S08093 1958 11 SI MM NOT_NAMED 1958-02-11 03:00:00 TS -14.7171 87.9168 main 1892 1892 P_____P__PP___ SH141958 -14.7174 87.9048 -1 -14.7174 87.9048 -14.7174 87.9048 TC 35 -14.7160 87.9528 2 13 176
1958039S08093 1958 11 SI MM NOT_NAMED 1958-02-11 06:00:00 TS -15.3000 88.0000 bom main 1937 1937 O_____O__OO___ jtwc_sh SH141958 -15.3000 88.0000 -1 -15.3000 88.0000 -15.3000 88.0000 TC 35 -15.3000 88.0000 2 10 168
1958039S08093 1958 11 SI MM NOT_NAMED 1958-02-11 09:00:00 TS -15.6767 88.1221 main 1965 1958 P_____P__PP___ SH141958 -15.6750 88.1275 -1 -15.6750 88.1275 -15.6750 88.1275 TC 35 -15.6818 88.1059 2 7 155
1958039S08093 1958 11 SI MM NOT_NAMED 1958-02-11 12:00:00 TS -15.9075 88.2937 bom main 1970 1970 O_____O__OP___ jtwc_sh SH141958 -15.9000 88.3000 -1 -15.9000 88.3000 -15.9000 88.3000 TC 35 -15.9299 88.2746 2 5 139
1958039S08093 1958 11 SI MM NOT_NAMED 1958-02-11 15:00:00 TS -16.0820 88.4953 main 1975 1968 P_____P__PP___ SH141958 -16.0800 88.5000 -1 -16.0800 88.5000 -16.0800 88.5000 TC 35 -16.0881 88.4810 2 5 127
1958039S08093 1958 11 SI MM NOT_NAMED 1958-02-11 18:00:00 TS -16.2000 88.7000 bom main 1971 1965 O_____O__OO___ jtwc_sh SH141958 -16.2000 88.7000 -1 -16.2000 88.7000 -16.2000 88.7000 TC 35 -16.2000 88.7000 2 4 124
1958039S08093 1958 11 SI MM NOT_NAMED 1958-02-11 21:00:00 TS -16.3124 88.8461 main 1974 1968 P_____P__PP___ SH141958 -16.3074 88.8426 -1 -16.3074 88.8426 -16.3074 88.8426 TC 35 -16.3275 88.8567 2 4 125
1958039S08093 1958 11 SI MM NOT_NAMED 1958-02-12 00:00:00 TS -16.4055 89.0064 bom main 1971 1965 O_____O__OP___ jtwc_sh SH141958 -16.4000 89.0000 -1 -16.4000 89.0000 -16.4000 89.0000 TC 35 -16.4219 89.0257 2 4 117
1958039S08093 1958 11 SI MM NOT_NAMED 1958-02-12 03:00:00 TS -16.4957 89.2174 main 1969 1957 P_____P__PP___ SH141958 -16.4924 89.2126 -1 -16.4924 89.2126 -16.4924 89.2126 TC 35 -16.5054 89.2318 2 5 112
1958039S08093 1958 11 SI MM NOT_NAMED 1958-02-12 06:00:00 TS -16.6000 89.5000 bom main 1960 1953 O_____O__OO___ jtwc_sh SH141958 -16.6000 89.5000 -1 -16.6000 89.5000 -16.6000 89.5000 TC 35 -16.6000 89.5000 2 7 112
1958039S08093 1958 11 SI MM NOT_NAMED 1958-02-12 09:00:00 TS -16.7449 89.8675 main 1947 1945 P_____P__PP___ SH141958 -16.7425 89.8700 -1 -16.7425 89.8700 -16.7425 89.8700 TC 35 -16.7521 89.8599 2 8 112
1958039S08093 1958 11 SI WA NOT_NAMED 1958-02-12 12:00:00 TS -16.9038 90.2955 bom main 1945 1929 O_____O__OP___ jtwc_sh SH141958 -16.9000 90.3000 -1 -16.9000 90.3000 -16.9000 90.3000 TC 35 -16.9153 90.2820 2 9 111
1958039S08093 1958 11 SI WA NOT_NAMED 1958-02-12 15:00:00 TS -17.0608 90.7470 main 1937 1910 P_____P__PP___ SH141958 -17.0575 90.7500 -1 -17.0575 90.7500 -17.0575 90.7500 TC 35 -17.0708 90.7381 2 9 109
1958039S08093 1958 11 SI WA NOT_NAMED 1958-02-12 18:00:00 TS -17.2000 91.2000 bom main 1910 1888 O_____O__OO___ jtwc_sh SH141958 -17.2000 91.2000 -1 -17.2000 91.2000 -17.2000 91.2000 TC 35 -17.2000 91.2000 2 9 107
1958039S08093 1958 11 SI WA NOT_NAMED 1958-02-12 21:00:00 TS -17.3141 91.6113 main 1888 1861 P_____P__PP___ SH141958 -17.3223 91.6000 -1 -17.3223 91.6000 -17.3223 91.6000 TC 35 -17.2894 91.6450 2 8 103
1958039S08093 1958 11 SI WA NOT_NAMED 1958-02-13 00:00:00 TS -17.3863 92.0182 bom main 1861 1827 O_____O__OP___ jtwc_sh SH141958 -17.4000 92.0000 -1 -17.4000 92.0000 -17.4000 92.0000 TC 35 -17.3453 92.0729 2 8 97
1958039S08093 1958 11 SI WA NOT_NAMED 1958-02-13 03:00:00 TS -17.4080 92.4505 main 1819 1787 P_____P__PP___ SH141958 -17.4178 92.4376 -1 -17.4178 92.4376 -17.4178 92.4376 TC 35 -17.3785 92.4893 2 8 91
1958039S08093 1958 11 SI WA NOT_NAMED 1958-02-13 06:00:00 TS -17.4000 92.9000 bom main 1787 O_____O__OO___ jtwc_sh SH141958 -17.4000 92.9000 -1 -17.4000 92.9000 -17.4000 92.9000 TC 35 -17.4000 92.9000 2 9 89

About IBTrACS Database

This database is a web-friendly format of International Best Track Archive for Climate Stewardship (IBTrACS), a global best track data archive curated by NOAA dating back to 1842.

Updated: 2021-12-03